Relevés horaires Bierset (Belgique)


Relevés horaires à Bierset - Samedi 07 Nov. 2020
Heure UTC1 Température [°C] Vent [km/h] Hum. [%] Pres.4 [hPa] Visi. [Km] Nébu. [octa] Préc.5 [mm] Cond.
2m. Res. Ros. Dir.2 Vit. Moy. Raf.3
23:00 11.0 10.3 6.2 SSE 7.4 9.3 11.1 72 1021.9(-0.3/3h) 30 6/8 -- --
22:00 10.7 10 6.5 SSE 7.4 7.4 13.0 75 1022(-0.5/3h) 30 6/8 -- --
21:00 10.5 10.5 6.6 SSE 3.7 7.4 14.8 77 1022.4(-0.1/3h) 30 4/8 -- --
20:00 11.0 11.0 7.0 SE 3.7 5.6 14.8 76 1022.2(0.1/3h) 30 2/8 -- --
19:00 12.3 12.2 6.9 SSE 5.6 7.4 14.8 70 1022.3(0.4/3h) 30 2/8 -- --
18:00 13.3 13.3 7.0 S 5.6 7.4 14.8 66 1022.2(0.4/3h) 30 2/8 0/12h
--
17:00 14.3 14.3 6.9 SSE 5.6 5.6 9.3 61 1021.8(-0.2/3h) 30 2/8 -- --
16:00 15.2 15.2 7.1 SSE 3.7 5.6 9.3 58 1021.6(-0.8/3h) 30 2/8 -- --
15:00 16.5 16.5 7.6 SSE 5.6 7.4 14.8 56 1021.6(-1.1/3h) 30 2/8 -- --
14:00 17.1 17.1 7.1 SE 3.7 7.4 14.8 52 1021.8(-1.4/3h) 30 2/8 -- --
13:00 16.7 16.7 7.0 S 5.6 7.4 13.0 53 1022.3(-1.2/3h) 30 2/8 -- --
12:00 15.6 15.6 7.7 SE 3.7 9.3 18.5 59 1022.8(-1.4/3h) 30 3/8 0/6h
--
11:00 14.1 14.1 7.7 SSE 5.6 5.6 13.0 65 1023.4(-0.6/3h) 30 3/8 -- --
10:00 12.8 12.8 7.9 SE 3.7 5.6 13.0 72 1023.8(0.0/3h) 30 4/8 -- --
09:00 11.2 11.2 7.1 S 3.7 9.3 18.5 76 1024.5(0.6/3h) 30 2/8 -- --
08:00 8.9 8.9 5.4 SSE 3.7 7.4 18.5 79 1024.5(-0.2/3h) 30 2/8 -- --
07:00 7.9 6.3 5.0 SSE 9.3 9.3 18.5 82 1024.2(-0.5/3h) 30 0/8 -- --
06:00 7.3 6 4.8 SE 7.4 9.3 16.7 84 1024.2(-0.5/3h) 30 0/8 0/12h
--
05:00 7.9 6.3 4.6 SSE 9.3 9.3 13.0 80 1024.4(-0.7/3h) 30 0/8 -- --
04:00 7.0 6.1 4.3 SSE 5.6 7.4 13.0 83 1024.8(-0.3/3h) 30 0/8 -- --
03:00 7.4 6.6 4.2 SSE 5.6 7.4 14.8 80 1024.7(-0.6/3h) 30 0/8 -- --
02:00 7.1 6.3 3.8 S 5.6 7.4 14.8 79 1025.2(-0.5/3h) 30 0/8 -- --
01:00 7.0 7.0 3.5 SSE 3.7 7.4 11.1 78 1025.1(-0.8/3h) 30 0/8 -- --
00:00 7.5 7.5 2.5 SSE 3.7 13.0 27.8 71 1025.3(-1.1/3h) 30 0/8 0/6h
0/24h
--

1 Coordinated Universal Time. Actuellement il est 01:00 locale et 23:00 UTC.

2 Le vent souffle depuis la direction indiquée vers la direction oposée.

3 Les rafales max. sont disponible 40 min après l'heure du relevé.

4 Pour les stations d'altitude (plus de 600m) le géopotentiel du niveau le plus proche de la pression obligatoire est indiqué.

5 Les stations disposant d'un diffuseur peuvent indiquer "trace". Cela signifie que des précipitations ont touchés le sol mais que la quantité est inférieure à 0.1 mm.

Récapitulatif de la journée
Température [°C] Vent [km/h] Ensoleillement4 [h] Precipitations totale5 [mm] Pression [Hpa]
Min1 Max.2 Moy.3 Max. Min Max.
6.4 17.3 7.7 27.8 0 h 0 min 0 1021.6 1025.3

1 Température minimale relevée entre 18:00 UTC la veille et 18:00 UTC le jour donné.

2 Température maximale relevée entre 06:00 UTC le jour donné et 06:00 UTC le lendemain.

3 Vent moyen de la journée basé sur les relevés horaires.

4 Ensoleillement en heures relevé entre 06:00 UTC la veille et 06:00 UTC le jour donné.

5 Précipitations totales tombées entre 06:00 UTC la jour donné et 06:00 UTC le lendemain.

Graphiques horaires